createdAt,value
2023-02-17T00:00:31.825Z,97.78
2023-02-17T00:01:36.055Z,97.88
2023-02-17T00:02:31.778Z,97.88
2023-02-17T00:03:31.754Z,97.88
2023-02-17T00:04:31.770Z,97.88
2023-02-17T00:05:31.697Z,97.88
2023-02-17T00:06:31.697Z,97.78
2023-02-17T00:07:31.642Z,97.78
2023-02-17T00:08:31.645Z,97.78
2023-02-17T00:09:31.633Z,97.78
2023-02-17T00:10:31.608Z,97.67
2023-02-17T00:11:31.602Z,97.57
2023-02-17T00:12:31.555Z,97.57
2023-02-17T00:13:31.609Z,97.47
2023-02-17T00:14:31.529Z,97.37
2023-02-17T00:15:31.693Z,97.37
2023-02-17T00:16:31.521Z,97.37
2023-02-17T00:17:31.500Z,97.37
2023-02-17T00:18:31.487Z,97.57
2023-02-17T00:19:31.453Z,97.57
2023-02-17T00:20:31.447Z,97.67
2023-02-17T00:21:31.501Z,97.67
2023-02-17T00:22:31.412Z,97.78
2023-02-17T00:23:31.403Z,97.78
2023-02-17T00:24:31.418Z,97.78
2023-02-17T00:25:31.378Z,97.78
2023-02-17T00:26:31.379Z,97.78
2023-02-17T00:27:31.341Z,97.78
2023-02-17T00:28:31.318Z,97.67
2023-02-17T00:29:31.311Z,97.78
2023-02-17T00:30:31.329Z,97.78
2023-02-17T00:31:31.366Z,97.57
2023-02-17T00:32:31.306Z,97.33
2023-02-17T00:33:31.262Z,97.33
2023-02-17T00:34:31.248Z,97.12
2023-02-17T00:35:31.241Z,97.12
2023-02-17T00:36:31.206Z,97.12
2023-02-17T00:37:31.203Z,97.12
2023-02-17T00:38:31.219Z,97.12
2023-02-17T00:39:31.159Z,97.12
2023-02-17T00:40:31.160Z,97.12
2023-02-17T00:41:31.205Z,97.12
2023-02-17T00:42:31.113Z,97.12
2023-02-17T00:43:31.118Z,97.12
2023-02-17T00:44:31.115Z,97.12
2023-02-17T00:45:31.127Z,97.02
2023-02-17T00:46:31.192Z,97.02
2023-02-17T00:47:31.081Z,97.02
2023-02-17T00:48:31.153Z,97.02
2023-02-17T00:49:31.064Z,97.12
2023-02-17T00:50:31.011Z,97.22
2023-02-17T00:51:31.032Z,97.33
2023-02-17T00:52:30.980Z,97.33
2023-02-17T00:53:30.980Z,97.33
2023-02-17T00:54:30.952Z,97.42
2023-02-17T00:55:30.968Z,97.53
2023-02-17T00:56:30.962Z,97.53
2023-02-17T00:57:30.933Z,97.63
2023-02-17T00:58:30.894Z,97.83
2023-02-17T00:59:30.897Z,97.94
2023-02-17T01:00:30.889Z,98.14
2023-02-17T01:01:32.363Z,98.14
2023-02-17T01:02:30.840Z,98.35
2023-02-17T01:03:30.842Z,98.35
2023-02-17T01:04:30.820Z,98.45
2023-02-17T01:05:30.820Z,98.45
2023-02-17T01:06:30.779Z,98.45
2023-02-17T01:07:30.808Z,98.55
2023-02-17T01:08:30.776Z,98.55
2023-02-17T01:09:30.721Z,98.65
2023-02-17T01:10:30.716Z,98.75
2023-02-17T01:11:30.689Z,98.80
2023-02-17T01:12:30.698Z,98.90
2023-02-17T01:13:30.696Z,98.55
2023-02-17T01:14:30.672Z,98.55
2023-02-17T01:15:30.654Z,98.55
2023-02-17T01:16:30.677Z,98.70
2023-02-17T01:17:30.697Z,98.65
2023-02-17T01:18:30.639Z,98.80
2023-02-17T01:19:30.597Z,98.90
2023-02-17T01:20:30.579Z,98.90
2023-02-17T01:21:30.625Z,98.90
2023-02-17T01:22:30.540Z,98.90
2023-02-17T01:23:30.525Z,98.86
2023-02-17T01:24:30.569Z,98.86
2023-02-17T01:25:30.521Z,98.96
2023-02-17T01:26:30.470Z,98.96
2023-02-17T01:27:30.502Z,99.21
2023-02-17T01:28:30.455Z,99.41
2023-02-17T01:29:30.433Z,99.62
2023-02-17T01:30:30.486Z,99.72
2023-02-17T01:31:30.553Z,99.82
2023-02-17T01:32:30.385Z,99.99
2023-02-17T01:33:30.391Z,99.99
2023-02-17T01:34:30.368Z,99.99
2023-02-17T01:35:30.376Z,99.99
2023-02-17T01:36:30.367Z,99.99
2023-02-17T01:37:30.330Z,99.99
2023-02-17T01:38:30.307Z,99.99
2023-02-17T01:39:30.354Z,99.99
2023-02-17T01:40:30.310Z,99.99
2023-02-17T01:41:30.293Z,99.99
2023-02-17T01:42:30.243Z,99.99
2023-02-17T01:43:30.228Z,99.99
2023-02-17T01:44:30.223Z,99.99
2023-02-17T01:45:30.198Z,99.99
2023-02-17T01:46:30.229Z,99.99
2023-02-17T01:47:30.177Z,99.99
2023-02-17T01:48:30.164Z,99.99
2023-02-17T01:49:30.152Z,99.99
2023-02-17T01:50:30.124Z,99.99
2023-02-17T01:51:30.168Z,99.99
2023-02-17T01:52:30.128Z,99.99
2023-02-17T01:53:30.096Z,99.99
2023-02-17T01:54:30.051Z,99.99
2023-02-17T01:55:30.078Z,99.99
2023-02-17T01:56:30.026Z,99.99
2023-02-17T01:57:30.046Z,99.99
2023-02-17T01:58:30.019Z,99.99
2023-02-17T01:59:29.976Z,99.99
2023-02-17T02:00:30.066Z,99.99
2023-02-17T02:01:29.963Z,99.99
2023-02-17T02:02:30.141Z,99.99
2023-02-17T02:03:29.924Z,99.99
2023-02-17T02:04:29.916Z,99.99
2023-02-17T02:05:29.906Z,99.99
2023-02-17T02:06:29.885Z,99.99
2023-02-17T02:07:29.881Z,99.99
2023-02-17T02:08:29.891Z,99.99
2023-02-17T02:09:29.834Z,99.99
2023-02-17T02:10:29.805Z,99.99
2023-02-17T02:11:29.799Z,99.99
2023-02-17T02:12:29.792Z,99.99
2023-02-17T02:13:29.773Z,99.99
2023-02-17T02:14:29.809Z,99.99
2023-02-17T02:15:29.756Z,99.99
2023-02-17T02:16:29.906Z,99.99
2023-02-17T02:17:29.751Z,99.99
2023-02-17T02:18:29.732Z,99.99
2023-02-17T02:19:29.743Z,99.99
2023-02-17T02:20:29.666Z,99.99
2023-02-17T02:21:29.710Z,99.99
2023-02-17T02:22:29.673Z,99.99
2023-02-17T02:23:29.662Z,99.99
2023-02-17T02:24:29.623Z,99.99
2023-02-17T02:25:29.639Z,99.99
2023-02-17T02:26:29.591Z,99.99
2023-02-17T02:27:29.588Z,99.99
2023-02-17T02:28:29.590Z,99.99
2023-02-17T02:29:29.541Z,99.99
2023-02-17T02:30:29.644Z,99.99
2023-02-17T02:31:29.595Z,99.99
2023-02-17T02:32:35.522Z,99.99
2023-02-17T02:33:29.496Z,99.99
2023-02-17T02:34:29.523Z,99.99
2023-02-17T02:35:29.466Z,99.99
2023-02-17T02:36:29.457Z,99.99
2023-02-17T02:37:29.554Z,99.99
2023-02-17T02:38:29.432Z,99.99
2023-02-17T02:39:29.447Z,99.99
2023-02-17T02:40:29.489Z,99.99
2023-02-17T02:41:29.391Z,99.99
2023-02-17T02:42:29.372Z,99.99
2023-02-17T02:43:29.385Z,99.99
2023-02-17T02:44:29.332Z,99.99
2023-02-17T02:45:29.508Z,99.99
2023-02-17T02:46:29.326Z,99.99
2023-02-17T02:47:29.335Z,99.99
2023-02-17T02:48:29.260Z,99.99
2023-02-17T02:49:29.312Z,99.99
2023-02-17T02:50:29.289Z,99.99
2023-02-17T02:51:29.276Z,99.99
2023-02-17T02:52:29.210Z,99.99
2023-02-17T02:53:29.208Z,99.99
2023-02-17T02:54:29.237Z,99.99
2023-02-17T02:55:29.206Z,99.99
2023-02-17T02:56:29.188Z,99.99
2023-02-17T02:57:29.142Z,99.93
2023-02-17T02:58:29.131Z,99.82
2023-02-17T02:59:29.127Z,99.52
2023-02-17T03:00:29.108Z,99.31
2023-02-17T03:01:29.091Z,99.11
2023-02-17T03:02:29.061Z,98.86
2023-02-17T03:03:29.042Z,98.96
2023-02-17T03:04:29.085Z,98.65
2023-02-17T03:05:29.059Z,98.65
2023-02-17T03:06:29.078Z,98.45
2023-02-17T03:07:29.053Z,98.24
2023-02-17T03:08:28.976Z,98.14
2023-02-17T03:09:28.970Z,97.94
2023-02-17T03:10:28.956Z,97.94
2023-02-17T03:11:28.993Z,97.83
2023-02-17T03:12:28.947Z,97.74
2023-02-17T03:13:28.932Z,97.63
2023-02-17T03:14:28.890Z,97.53
2023-02-17T03:15:28.882Z,97.42
2023-02-17T03:16:28.881Z,97.17
2023-02-17T03:17:28.881Z,97.28
2023-02-17T03:18:28.886Z,97.17
2023-02-17T03:19:28.815Z,97.17
2023-02-17T03:20:28.833Z,97.22
2023-02-17T03:21:28.790Z,97.17
2023-02-17T03:22:28.806Z,97.08
2023-02-17T03:23:28.811Z,97.08
2023-02-17T03:24:28.750Z,97.12
2023-02-17T03:25:28.784Z,97.02
2023-02-17T03:26:28.726Z,96.87
2023-02-17T03:27:28.705Z,96.87
2023-02-17T03:28:28.685Z,96.87
2023-02-17T03:29:28.684Z,96.87
2023-02-17T03:30:28.723Z,96.87
2023-02-17T03:31:30.788Z,96.77
2023-02-17T03:32:28.627Z,96.67
2023-02-17T03:33:28.621Z,96.67
2023-02-17T03:34:28.602Z,96.77
2023-02-17T03:35:28.611Z,96.77
2023-02-17T03:36:28.621Z,96.67
2023-02-17T03:37:28.561Z,96.77
2023-02-17T03:38:28.575Z,96.77
2023-02-17T03:39:28.545Z,96.67
2023-02-17T03:40:28.528Z,96.77
2023-02-17T03:41:28.494Z,96.67
2023-02-17T03:42:28.503Z,96.67
2023-02-17T03:43:28.473Z,96.67
2023-02-17T03:44:28.513Z,96.67
2023-02-17T03:45:28.482Z,96.56
2023-02-17T03:46:28.424Z,96.46
2023-02-17T03:47:28.428Z,96.56
2023-02-17T03:48:28.407Z,96.36
2023-02-17T03:49:28.419Z,96.36
2023-02-17T03:50:28.397Z,96.36
2023-02-17T03:51:28.395Z,96.36
2023-02-17T03:52:28.383Z,96.26
2023-02-17T03:53:28.339Z,96.36
2023-02-17T03:54:28.389Z,96.36
2023-02-17T03:55:28.315Z,96.36
2023-02-17T03:56:28.289Z,96.26
2023-02-17T03:57:28.289Z,96.26
2023-02-17T03:58:28.276Z,96.05
2023-02-17T03:59:28.262Z,96.15
2023-02-17T04:00:28.225Z,96.05
2023-02-17T04:01:28.267Z,95.85
2023-02-17T04:02:28.234Z,95.85
2023-02-17T04:03:28.293Z,95.85
2023-02-17T04:04:28.185Z,95.85
2023-02-17T04:05:28.166Z,95.95
2023-02-17T04:06:28.183Z,95.95
2023-02-17T04:07:28.158Z,95.95
2023-02-17T04:08:28.137Z,95.85
2023-02-17T04:09:28.161Z,95.75
2023-02-17T04:10:28.116Z,95.75
2023-02-17T04:11:28.079Z,95.64
2023-02-17T04:12:28.097Z,95.64
2023-02-17T04:13:28.043Z,95.64
2023-02-17T04:14:28.055Z,95.64
2023-02-17T04:15:28.054Z,95.54
2023-02-17T04:16:28.018Z,95.54
2023-02-17T04:17:28.013Z,95.44
2023-02-17T04:18:27.989Z,95.44
2023-02-17T04:19:28.019Z,95.44
2023-02-17T04:20:27.962Z,95.44
2023-02-17T04:21:39.357Z,95.44
2023-02-17T04:23:42.253Z,95.54
2023-02-17T04:24:40.608Z,95.64
2023-02-17T04:25:40.586Z,95.64
2023-02-17T04:26:40.579Z,95.54
2023-02-17T04:27:40.621Z,95.54
2023-02-17T04:28:40.577Z,95.54
2023-02-17T04:29:40.534Z,95.54
2023-02-17T04:30:40.579Z,95.54
2023-02-17T04:31:40.595Z,95.54
2023-02-17T04:32:40.483Z,95.54
2023-02-17T04:33:40.523Z,95.44
2023-02-17T04:34:40.466Z,95.54
2023-02-17T04:35:40.449Z,95.54
2023-02-17T04:36:40.443Z,95.64
2023-02-17T04:37:40.431Z,95.75
2023-02-17T04:38:40.409Z,95.75
2023-02-17T04:39:40.391Z,95.64
2023-02-17T04:40:40.398Z,95.64
2023-02-17T04:41:40.398Z,95.64
2023-02-17T04:42:40.347Z,95.54
2023-02-17T04:43:40.339Z,95.54
2023-02-17T04:44:40.314Z,95.44
2023-02-17T04:45:40.345Z,95.34
2023-02-17T04:46:40.305Z,95.34
2023-02-17T04:47:40.301Z,95.23
2023-02-17T04:48:40.313Z,95.34
2023-02-17T04:49:40.273Z,95.23
2023-02-17T04:50:40.233Z,95.23
2023-02-17T04:51:40.330Z,95.23
2023-02-17T04:52:40.237Z,95.13
2023-02-17T04:53:40.228Z,95.13
2023-02-17T04:54:40.176Z,95.03
2023-02-17T04:55:40.169Z,95.03
2023-02-17T04:56:40.170Z,94.93
2023-02-17T04:57:40.166Z,94.93
2023-02-17T04:58:40.139Z,94.82
2023-02-17T04:59:40.180Z,94.73
2023-02-17T05:00:40.120Z,94.73
2023-02-17T05:01:40.156Z,94.73
2023-02-17T05:02:40.069Z,94.37
2023-02-17T05:03:40.052Z,94.42
2023-02-17T05:04:40.099Z,94.17
2023-02-17T05:05:40.065Z,94.07
2023-02-17T05:06:40.013Z,94.01
2023-02-17T05:07:39.998Z,94.07
2023-02-17T05:08:39.978Z,93.96
2023-02-17T05:09:39.971Z,94.07
2023-02-17T05:10:39.967Z,93.96
2023-02-17T05:11:40.065Z,93.96
2023-02-17T05:12:39.944Z,93.96
2023-02-17T05:13:39.909Z,94.01
2023-02-17T05:14:39.919Z,94.01
2023-02-17T05:15:39.945Z,94.01
2023-02-17T05:16:39.905Z,94.01
2023-02-17T05:17:39.954Z,94.01
2023-02-17T05:18:39.880Z,94.01
2023-02-17T05:19:39.826Z,94.01
2023-02-17T05:20:39.809Z,94.21
2023-02-17T05:21:39.800Z,94.17
2023-02-17T05:22:39.817Z,94.01
2023-02-17T05:23:39.800Z,93.96
2023-02-17T05:24:39.767Z,93.96
2023-02-17T05:25:39.784Z,94.01
2023-02-17T05:26:39.767Z,94.01
2023-02-17T05:27:39.727Z,94.01
2023-02-17T05:28:39.733Z,94.01
2023-02-17T05:29:39.718Z,93.70
2023-02-17T05:30:39.679Z,93.60
2023-02-17T05:31:39.806Z,93.40
2023-02-17T05:32:39.655Z,93.40
2023-02-17T05:33:39.626Z,93.40
2023-02-17T05:34:39.688Z,93.40
2023-02-17T05:35:39.619Z,93.40
2023-02-17T05:36:39.582Z,93.40
2023-02-17T05:37:39.575Z,93.19
2023-02-17T05:38:39.571Z,93.19
2023-02-17T05:39:39.574Z,93.09
2023-02-17T05:40:39.556Z,93.09
2023-02-17T05:41:39.578Z,93.09
2023-02-17T05:42:39.516Z,92.99
2023-02-17T05:43:39.596Z,92.88
2023-02-17T05:44:39.487Z,92.78
2023-02-17T05:45:39.483Z,92.88
2023-02-17T05:46:39.576Z,92.88
2023-02-17T05:47:39.443Z,92.99
2023-02-17T05:48:39.441Z,92.99
2023-02-17T05:49:39.418Z,93.09
2023-02-17T05:50:39.412Z,93.09
2023-02-17T05:51:48.247Z,92.99
2023-02-17T05:52:39.482Z,93.19
2023-02-17T05:53:39.393Z,93.19
2023-02-17T05:54:39.403Z,93.19
2023-02-17T05:55:39.346Z,93.29
2023-02-17T05:56:39.333Z,93.29
2023-02-17T05:57:39.402Z,93.40
2023-02-17T05:58:39.298Z,93.29
2023-02-17T05:59:39.326Z,93.40
2023-02-17T06:00:39.277Z,93.40
2023-02-17T06:01:39.245Z,93.40
2023-02-17T06:02:39.267Z,93.40
2023-02-17T06:03:39.253Z,93.40
2023-02-17T06:04:39.357Z,93.60
2023-02-17T06:05:39.200Z,93.70
2023-02-17T06:06:39.214Z,93.80
2023-02-17T06:07:39.165Z,93.91
2023-02-17T06:08:39.158Z,94.01
2023-02-17T06:09:39.127Z,94.01
2023-02-17T06:10:39.111Z,94.11
2023-02-17T06:11:39.093Z,94.21
2023-02-17T06:12:39.180Z,94.21
2023-02-17T06:13:39.096Z,94.11
2023-02-17T06:14:39.082Z,94.11
2023-02-17T06:15:39.052Z,94.21
2023-02-17T06:16:39.033Z,94.21
2023-02-17T06:17:39.073Z,94.11
2023-02-17T06:18:39.027Z,94.11
2023-02-17T06:19:39.018Z,94.01
2023-02-17T06:20:39.011Z,94.01
2023-02-17T06:21:38.969Z,94.21
2023-02-17T06:22:38.949Z,94.11
2023-02-17T06:23:38.946Z,94.11
2023-02-17T06:24:38.927Z,94.11
2023-02-17T06:25:38.926Z,94.21
2023-02-17T06:26:38.891Z,94.32
2023-02-17T06:27:38.874Z,94.32
2023-02-17T06:28:38.878Z,94.42
2023-02-17T06:29:38.839Z,94.52
2023-02-17T06:30:38.830Z,94.42
2023-02-17T06:31:38.937Z,94.32
2023-02-17T06:32:38.820Z,94.32
2023-02-17T06:33:38.776Z,94.32
2023-02-17T06:34:38.779Z,94.32
2023-02-17T06:35:38.775Z,94.32
2023-02-17T06:36:38.729Z,94.32
2023-02-17T06:37:38.761Z,94.42
2023-02-17T06:38:38.698Z,94.42
2023-02-17T06:39:38.732Z,94.52
2023-02-17T06:40:38.696Z,94.52
2023-02-17T06:41:38.673Z,94.52
2023-02-17T06:42:38.744Z,94.52
2023-02-17T06:43:38.634Z,94.73
2023-02-17T06:44:38.629Z,94.89
2023-02-17T06:45:38.634Z,95.13
2023-02-17T06:46:38.587Z,95.64
2023-02-17T06:47:38.574Z,96.05
2023-02-17T06:48:38.593Z,96.46
2023-02-17T06:49:40.657Z,96.77
2023-02-17T06:50:38.535Z,96.97
2023-02-17T06:51:38.526Z,97.17
2023-02-17T06:52:38.515Z,97.28
2023-02-17T06:53:38.489Z,97.42
2023-02-17T06:54:38.483Z,97.58
2023-02-17T06:55:38.629Z,97.79
2023-02-17T06:56:38.483Z,97.89
2023-02-17T06:57:38.436Z,98.14
2023-02-17T06:58:38.421Z,98.30
2023-02-17T06:59:38.430Z,98.55
2023-02-17T07:00:38.400Z,98.86
2023-02-17T07:01:38.420Z,99.06
2023-02-17T07:02:38.517Z,99.27
2023-02-17T07:03:38.396Z,99.57
2023-02-17T07:04:38.372Z,99.78
2023-02-17T07:05:38.346Z,99.88
2023-02-17T07:06:38.323Z,99.99
2023-02-17T07:07:38.334Z,99.99
2023-02-17T07:08:45.866Z,99.99
2023-02-17T07:09:47.087Z,99.99
2023-02-17T07:10:38.285Z,99.99
2023-02-17T07:11:38.240Z,99.99
2023-02-17T07:12:38.267Z,99.99
2023-02-17T07:13:38.203Z,99.99
2023-02-17T07:14:38.212Z,99.99
2023-02-17T07:15:38.202Z,99.99
2023-02-17T07:16:38.212Z,99.88
2023-02-17T07:17:38.169Z,99.98
2023-02-17T07:18:38.150Z,99.88
2023-02-17T07:19:38.132Z,99.98
2023-02-17T07:20:39.340Z,99.68
2023-02-17T07:21:38.091Z,99.47
2023-02-17T07:22:38.111Z,99.57
2023-02-17T07:23:38.064Z,99.37
2023-02-17T07:24:38.043Z,99.22
2023-02-17T07:25:38.038Z,99.02
2023-02-17T07:26:38.029Z,99.11
2023-02-17T07:27:37.990Z,98.91
2023-02-17T07:28:38.012Z,98.81
2023-02-17T07:29:37.969Z,98.71
2023-02-17T07:30:37.991Z,98.81
2023-02-17T07:31:38.019Z,98.50
2023-02-17T07:32:37.926Z,98.50
2023-02-17T07:33:37.945Z,98.40
2023-02-17T07:34:37.897Z,98.40
2023-02-17T07:35:37.891Z,98.20
2023-02-17T07:36:37.854Z,98.30
2023-02-17T07:37:37.914Z,98.30
2023-02-17T07:38:37.858Z,98.15
2023-02-17T07:39:37.875Z,98.30
2023-02-17T07:40:37.819Z,98.25
2023-02-17T07:41:37.811Z,98.25
2023-02-17T07:42:38.476Z,98.25
2023-02-17T07:43:37.785Z,98.15
2023-02-17T07:44:37.774Z,97.85
2023-02-17T07:45:37.742Z,97.95
2023-02-17T07:46:37.708Z,97.95
2023-02-17T07:47:37.709Z,98.05
2023-02-17T07:48:37.726Z,98.05
2023-02-17T07:49:37.705Z,97.95
2023-02-17T07:50:37.653Z,97.85
2023-02-17T07:51:37.656Z,97.85
2023-02-17T07:52:37.657Z,97.74
2023-02-17T07:53:37.622Z,97.74
2023-02-17T07:54:37.617Z,97.74
2023-02-17T07:55:37.572Z,97.74
2023-02-17T07:56:37.594Z,97.64
2023-02-17T07:57:37.588Z,97.64
2023-02-17T07:58:37.549Z,97.64
2023-02-17T07:59:37.541Z,97.54
2023-02-17T08:00:37.531Z,97.44
2023-02-17T08:01:37.513Z,97.44
2023-02-17T08:02:37.593Z,97.33
2023-02-17T08:03:37.458Z,97.44
2023-02-17T08:04:37.522Z,97.44
2023-02-17T08:05:37.448Z,97.44
2023-02-17T08:06:37.454Z,97.44
2023-02-17T08:07:37.434Z,97.33
2023-02-17T08:08:37.458Z,97.33
2023-02-17T08:09:37.383Z,97.24
2023-02-17T08:10:37.374Z,97.24
2023-02-17T08:11:37.385Z,97.13
2023-02-17T08:12:37.373Z,97.13
2023-02-17T08:13:37.372Z,97.08
2023-02-17T08:14:37.367Z,97.19
2023-02-17T08:15:37.400Z,97.19
2023-02-17T08:16:37.433Z,97.19
2023-02-17T08:17:37.411Z,97.08
2023-02-17T08:18:37.558Z,96.88
2023-02-17T08:19:48.141Z,96.88
2023-02-17T08:20:38.338Z,96.88
2023-02-17T08:21:37.268Z,96.88
2023-02-17T08:22:37.246Z,96.88
2023-02-17T08:23:37.208Z,96.78
2023-02-17T08:24:37.236Z,96.78
2023-02-17T08:25:37.165Z,96.68
2023-02-17T08:26:37.177Z,96.58
2023-02-17T08:27:37.131Z,96.58
2023-02-17T08:28:37.151Z,96.58
2023-02-17T08:29:37.112Z,96.37
2023-02-17T08:30:37.228Z,96.47
2023-02-17T08:31:37.194Z,96.27
2023-02-17T08:32:37.093Z,96.27
2023-02-17T08:33:37.062Z,96.06
2023-02-17T08:34:37.071Z,96.17
2023-02-17T08:35:37.044Z,96.12
2023-02-17T08:36:37.013Z,95.92
2023-02-17T08:37:37.016Z,96.06
2023-02-17T08:38:37.077Z,95.92
2023-02-17T08:39:36.973Z,95.92
2023-02-17T08:40:36.972Z,95.72
2023-02-17T08:41:36.977Z,95.61
2023-02-17T08:42:36.939Z,95.41
2023-02-17T08:43:36.916Z,95.31
2023-02-17T08:44:36.984Z,95.20
2023-02-17T08:45:36.950Z,95.20
2023-02-17T08:46:36.900Z,95.10
2023-02-17T08:47:36.897Z,95.10
2023-02-17T08:48:36.860Z,95.00
2023-02-17T08:49:36.854Z,95.10
2023-02-17T08:50:36.944Z,94.70
2023-02-17T08:51:36.806Z,94.79
2023-02-17T08:52:36.836Z,94.79
2023-02-17T08:53:36.790Z,94.75
2023-02-17T08:54:36.788Z,94.90
2023-02-17T08:55:48.561Z,94.59
2023-02-17T08:56:37.777Z,94.49
2023-02-17T08:57:36.761Z,94.34
2023-02-17T08:58:40.830Z,94.24
2023-02-17T08:59:36.787Z,94.14
2023-02-17T09:00:36.717Z,93.93
2023-02-17T09:01:36.727Z,94.04
2023-02-17T09:02:36.682Z,94.04
2023-02-17T09:03:36.652Z,93.73
2023-02-17T09:04:36.836Z,93.73
2023-02-17T09:05:36.675Z,93.84
2023-02-17T09:06:36.666Z,93.84
2023-02-17T09:07:36.696Z,93.52
2023-02-17T09:08:36.597Z,93.43
2023-02-17T09:09:36.590Z,93.28
2023-02-17T09:10:36.588Z,93.22
2023-02-17T09:11:36.553Z,93.12
2023-02-17T09:12:36.628Z,93.43
2023-02-17T09:13:36.528Z,93.22
2023-02-17T09:14:36.503Z,93.18
2023-02-17T09:15:36.547Z,93.18
2023-02-17T09:16:36.602Z,92.97
2023-02-17T09:17:36.441Z,92.87
2023-02-17T09:18:36.450Z,92.97
2023-02-17T09:19:36.494Z,92.77
2023-02-17T09:20:36.443Z,92.77
2023-02-17T09:21:36.494Z,92.77
2023-02-17T09:22:36.434Z,92.46
2023-02-17T09:23:36.421Z,92.46
2023-02-17T09:24:36.383Z,92.36
2023-02-17T09:25:36.369Z,92.32
2023-02-17T09:26:36.324Z,92.32
2023-02-17T09:27:36.328Z,92.42
2023-02-17T09:28:36.364Z,92.22
2023-02-17T09:29:36.314Z,91.71
2023-02-17T09:30:36.410Z,91.81
2023-02-17T09:31:36.397Z,91.61
2023-02-17T09:32:36.323Z,91.40
2023-02-17T09:33:36.312Z,91.36
2023-02-17T09:34:36.252Z,91.05
2023-02-17T09:35:36.232Z,91.16
2023-02-17T09:36:36.246Z,91.05
2023-02-17T09:37:36.207Z,90.85
2023-02-17T09:38:36.175Z,90.64
2023-02-17T09:39:36.192Z,90.64
2023-02-17T09:40:36.152Z,90.55
2023-02-17T09:41:36.145Z,90.50
2023-02-17T09:42:36.132Z,90.30
2023-02-17T09:43:36.207Z,90.09
2023-02-17T09:44:36.102Z,90.14
2023-02-17T09:45:36.117Z,90.44
2023-02-17T09:46:44.838Z,90.34
2023-02-17T09:47:41.215Z,90.40
2023-02-17T09:48:43.298Z,90.50
2023-02-17T09:49:36.052Z,90.30
2023-02-17T09:50:36.091Z,90.20
2023-02-17T09:51:36.155Z,90.20
2023-02-17T09:52:36.099Z,89.89
2023-02-17T09:53:36.018Z,89.89
2023-02-17T09:54:35.960Z,89.99
2023-02-17T09:55:36.035Z,90.09
2023-02-17T09:56:36.029Z,89.89
2023-02-17T09:57:35.977Z,89.99
2023-02-17T09:58:35.973Z,89.79
2023-02-17T09:59:35.977Z,89.89
2023-02-17T10:00:35.911Z,89.79
2023-02-17T10:01:35.919Z,89.89
2023-02-17T10:02:35.858Z,89.59
2023-02-17T10:03:35.906Z,89.69
2023-02-17T10:04:35.942Z,89.59
2023-02-17T10:05:35.821Z,89.79
2023-02-17T10:06:39.559Z,89.99
2023-02-17T10:07:35.785Z,89.89
2023-02-17T10:08:35.773Z,89.69
2023-02-17T10:09:35.868Z,89.99
2023-02-17T10:10:35.774Z,89.89
2023-02-17T10:11:35.746Z,89.99
2023-02-17T10:12:35.720Z,89.89
2023-02-17T10:13:35.702Z,89.79
2023-02-17T10:14:35.794Z,89.69
2023-02-17T10:15:35.680Z,89.75
2023-02-17T10:16:35.746Z,89.54
2023-02-17T10:17:35.734Z,89.38
2023-02-17T10:18:35.714Z,89.48
2023-02-17T10:19:35.621Z,89.59
2023-02-17T10:20:35.699Z,89.48
2023-02-17T10:21:35.689Z,89.38
2023-02-17T10:22:35.671Z,89.38
2023-02-17T10:23:35.569Z,89.48
2023-02-17T10:24:35.661Z,89.79
2023-02-17T10:25:35.584Z,89.79
2023-02-17T10:26:35.624Z,89.99
2023-02-17T10:27:35.519Z,90.09
2023-02-17T10:28:35.523Z,90.20
2023-02-17T10:29:35.483Z,89.99
2023-02-17T10:30:35.600Z,90.09
2023-02-17T10:31:35.561Z,90.09
2023-02-17T10:32:35.560Z,90.09
2023-02-17T10:33:35.488Z,90.30
2023-02-17T10:34:35.462Z,90.70
2023-02-17T10:35:35.413Z,90.50
2023-02-17T10:36:35.550Z,90.40
2023-02-17T10:37:36.841Z,90.20
2023-02-17T10:38:35.378Z,90.30
2023-02-17T10:39:35.354Z,90.40
2023-02-17T10:40:35.384Z,90.09
2023-02-17T10:41:35.371Z,90.20
2023-02-17T10:42:35.327Z,90.09
2023-02-17T10:43:35.287Z,89.89
2023-02-17T10:44:35.326Z,89.54
2023-02-17T10:45:35.273Z,89.54
2023-02-17T10:46:35.284Z,89.44
2023-02-17T10:47:35.237Z,89.03
2023-02-17T10:48:35.258Z,89.24
2023-02-17T10:49:44.609Z,89.14
2023-02-17T10:50:35.197Z,89.24
2023-02-17T10:51:35.205Z,88.89
2023-02-17T10:52:35.196Z,88.89
2023-02-17T10:53:35.169Z,88.69
2023-02-17T10:54:35.142Z,88.89
2023-02-17T10:55:35.160Z,88.34
2023-02-17T10:56:35.133Z,87.73
2023-02-17T10:57:35.092Z,87.93
2023-02-17T10:58:35.108Z,88.34
2023-02-17T10:59:35.103Z,87.63
2023-02-17T11:00:35.113Z,87.67
2023-02-17T11:01:35.113Z,87.77
2023-02-17T11:02:35.029Z,88.18
2023-02-17T11:03:35.057Z,88.39
2023-02-17T11:04:35.010Z,88.28
2023-02-17T11:05:35.026Z,88.39
2023-02-17T11:06:35.100Z,88.18
2023-02-17T11:07:35.038Z,88.28
2023-02-17T11:08:34.953Z,88.39
2023-02-17T11:09:34.972Z,88.28
2023-02-17T11:10:34.969Z,88.39
2023-02-17T11:11:34.960Z,88.69
2023-02-17T11:12:34.957Z,88.48
2023-02-17T11:13:34.905Z,88.48
2023-02-17T11:14:34.909Z,88.18
2023-02-17T11:15:34.917Z,87.98
2023-02-17T11:16:35.002Z,87.98
2023-02-17T11:17:34.878Z,87.87
2023-02-17T11:18:34.854Z,87.98
2023-02-17T11:19:34.813Z,87.87
2023-02-17T11:20:34.793Z,87.43
2023-02-17T11:21:34.810Z,87.32
2023-02-17T11:22:34.801Z,86.82
2023-02-17T11:23:34.766Z,86.71
2023-02-17T11:24:34.778Z,86.51
2023-02-17T11:25:34.837Z,86.68
2023-02-17T11:26:34.734Z,85.96
2023-02-17T11:27:34.711Z,85.76
2023-02-17T11:28:34.687Z,86.16
2023-02-17T11:29:34.721Z,85.86
2023-02-17T11:30:34.694Z,85.72
2023-02-17T11:31:34.706Z,85.11
2023-02-17T11:32:34.672Z,85.01
2023-02-17T11:33:34.625Z,84.60
2023-02-17T11:34:34.605Z,84.77
2023-02-17T11:35:34.621Z,84.16
2023-02-17T11:36:34.586Z,84.46
2023-02-17T11:37:34.609Z,84.20
2023-02-17T11:38:34.586Z,84.60
2023-02-17T11:39:34.566Z,84.20
2023-02-17T11:40:34.566Z,84.30
2023-02-17T11:41:34.532Z,84.09
2023-02-17T11:42:34.559Z,84.26
2023-02-17T11:43:34.508Z,83.95
2023-02-17T11:44:34.521Z,84.05
2023-02-17T11:45:34.504Z,83.54
2023-02-17T11:46:34.509Z,83.14
2023-02-17T11:47:34.458Z,83.89
2023-02-17T11:48:34.425Z,84.20
2023-02-17T11:49:34.425Z,84.20
2023-02-17T11:50:41.351Z,83.99
2023-02-17T11:51:35.427Z,83.89
2023-02-17T11:52:34.384Z,84.44
2023-02-17T11:53:34.531Z,84.64
2023-02-17T11:54:34.383Z,84.84
2023-02-17T11:55:41.843Z,85.05
2023-02-17T11:56:34.303Z,85.15
2023-02-17T11:57:34.329Z,85.05
2023-02-17T11:58:34.282Z,84.84
2023-02-17T11:59:34.279Z,84.84
2023-02-17T12:00:34.264Z,84.80
2023-02-17T12:01:34.257Z,84.50
2023-02-17T12:02:34.245Z,84.74
2023-02-17T12:03:36.687Z,84.44
2023-02-17T12:04:34.231Z,84.84
2023-02-17T12:05:34.195Z,84.64
2023-02-17T12:06:34.186Z,84.70
2023-02-17T12:07:34.168Z,84.70
2023-02-17T12:08:34.189Z,84.40
2023-02-17T12:09:34.176Z,84.66
2023-02-17T12:10:34.134Z,83.95
2023-02-17T12:11:34.151Z,83.75
2023-02-17T12:12:34.094Z,83.85
2023-02-17T12:13:34.078Z,83.34
2023-02-17T12:14:40.688Z,83.51
2023-02-17T12:15:34.072Z,83.00
2023-02-17T12:16:34.169Z,83.10
2023-02-17T12:17:34.056Z,82.90
2023-02-17T12:18:34.038Z,83.45
2023-02-17T12:19:36.913Z,83.31
2023-02-17T12:20:34.031Z,83.24
2023-02-17T12:21:33.994Z,83.54
2023-02-17T12:22:33.968Z,84.01
2023-02-17T12:23:33.963Z,83.51
2023-02-17T12:24:33.936Z,83.61
2023-02-17T12:25:33.980Z,83.85
2023-02-17T12:26:33.913Z,83.75
2023-02-17T12:27:33.895Z,84.12
2023-02-17T12:28:33.917Z,83.81
2023-02-17T12:29:33.914Z,83.91
2023-02-17T12:30:33.934Z,83.40
2023-02-17T12:31:33.970Z,83.40
2023-02-17T12:32:33.859Z,83.85
2023-02-17T12:33:33.870Z,83.85
2023-02-17T12:34:33.839Z,83.95
2023-02-17T12:35:33.798Z,83.81
2023-02-17T12:36:33.794Z,83.71
2023-02-17T12:37:33.782Z,83.91
2023-02-17T12:38:33.788Z,83.91
2023-02-17T12:39:33.759Z,83.54
2023-02-17T12:40:33.765Z,83.95
2023-02-17T12:41:33.765Z,83.95
2023-02-17T12:42:33.764Z,84.16
2023-02-17T12:43:33.698Z,84.26
2023-02-17T12:44:33.671Z,84.36
2023-02-17T12:45:33.666Z,84.36
2023-02-17T12:46:33.699Z,84.46
2023-02-17T12:47:33.665Z,84.05
2023-02-17T12:48:33.683Z,84.26
2023-02-17T12:49:33.638Z,84.26
2023-02-17T12:50:33.677Z,84.56
2023-02-17T12:51:33.578Z,84.36
2023-02-17T12:52:33.573Z,84.56
2023-02-17T12:53:33.543Z,84.26